Terminal Aerodrome Forecast
Issued by NWS

Home | Current Version | Previous Version | Text Only | Print | Product List | Glossary On
Versions: 1 2 3 4 5 6 7 8 9 10 11 12 13 14 15 16 17 18 19 20 21 22 23 24 25 26
000
FTUS41 KILN 041727
TAFLUK
TAF
KLUK 041727Z 0418/0518 28008KT P6SM FEW050 BKN300
     FM050000 VRB03KT P6SM BKN300
     FM050600 00000KT 3SM BR SCT100 BKN300
     FM051000 00000KT 1/4SM FG BKN002
     FM051300 00000KT 2SM BR SCT150 BKN300
     FM051400 08004KT P6SM SCT150 BKN300=

USA.gov is the U.S. government's official web portal to all federal, state and local government web resources and services.